createdAt,value
2023-05-13T00:39:02.307Z,100682.13
2023-05-13T00:39:56.277Z,100682.50
2023-05-13T00:40:53.286Z,100697.09
2023-05-13T00:41:47.263Z,100675.69
2023-05-13T00:42:41.270Z,100701.69
2023-05-13T00:43:35.278Z,100701.59
2023-05-13T00:44:29.287Z,100702.13
2023-05-13T00:45:24.288Z,100679.72
2023-05-13T00:46:18.347Z,100685.28
2023-05-13T00:47:13.266Z,100682.56
2023-05-13T00:48:07.282Z,100695.25
2023-05-13T00:49:01.282Z,100676.44
2023-05-13T00:49:48.353Z,100685.88
2023-05-13T00:50:22.682Z,100706.44
2023-05-13T00:51:11.283Z,100701.00
2023-05-13T00:51:45.469Z,100697.88
2023-05-13T00:52:34.571Z,100699.56
2023-05-13T00:53:10.352Z,100704.16
2023-05-13T00:53:58.281Z,100704.75
2023-05-13T00:54:32.368Z,100695.16
2023-05-13T00:55:14.280Z,100686.16
2023-05-13T00:55:54.368Z,100679.28
2023-05-13T00:56:34.268Z,100701.28
2023-05-13T00:57:14.360Z,100716.75
2023-05-13T00:57:54.268Z,100694.72
2023-05-13T00:58:34.378Z,100702.72
2023-05-13T00:59:14.261Z,100701.59
2023-05-13T00:59:54.413Z,100678.75
2023-05-13T01:00:37.290Z,100688.19
2023-05-13T01:01:47.427Z,100693.19
2023-05-13T01:02:41.395Z,100696.75
2023-05-13T01:04:15.764Z,100699.72
2023-05-13T01:05:25.256Z,100692.44
2023-05-13T01:06:57.295Z,100703.59
2023-05-13T01:07:47.318Z,100682.16
2023-05-13T01:09:10.273Z,100700.44
2023-05-13T01:10:12.918Z,100702.31
2023-05-13T01:11:08.261Z,100690.16
2023-05-13T01:11:47.347Z,100705.19
2023-05-13T01:12:43.293Z,100704.19
2023-05-13T01:13:31.351Z,100708.06
2023-05-13T01:14:30.219Z,100707.47
2023-05-13T01:36:55.255Z,100720.94
2023-05-13T01:40:54.231Z,100722.28
2023-05-13T02:14:36.268Z,100719.38
2023-05-13T02:15:30.227Z,100720.09
2023-05-13T02:16:29.252Z,100704.66
2023-05-13T02:17:24.405Z,100725.38
2023-05-13T02:18:18.202Z,100678.47
2023-05-13T02:19:14.189Z,100688.94
2023-05-13T02:20:01.201Z,100708.81
2023-05-13T02:20:35.350Z,100720.97
2023-05-13T02:21:22.165Z,100719.38
2023-05-13T02:21:56.561Z,100697.66
2023-05-13T02:22:43.208Z,100722.50
2023-05-13T02:23:17.713Z,100708.50
2023-05-13T02:24:05.211Z,100727.66
2023-05-13T02:24:40.424Z,100715.50
2023-05-13T02:25:20.221Z,100726.78
2023-05-13T02:26:00.393Z,100723.06
2023-05-13T02:26:41.175Z,100726.78
2023-05-13T02:27:21.259Z,100703.03
2023-05-13T02:28:04.166Z,100712.31
2023-05-13T02:28:44.356Z,100695.00
2023-05-13T02:29:24.174Z,100729.66
2023-05-13T02:30:04.280Z,100711.91
2023-05-13T02:30:45.181Z,100726.22
2023-05-13T02:31:25.544Z,100726.34
2023-05-13T02:32:05.189Z,100726.50
2023-05-13T02:32:45.383Z,100716.19
2023-05-13T02:33:25.162Z,100714.75
2023-05-13T02:34:05.239Z,100726.19
2023-05-13T02:34:46.184Z,100723.91
2023-05-13T02:35:29.603Z,100725.50
2023-05-13T02:36:09.192Z,100710.47
2023-05-13T02:36:49.655Z,100705.59
2023-05-13T02:37:29.246Z,100724.19
2023-05-13T02:38:09.259Z,100701.28
2023-05-13T02:38:50.223Z,100712.03
2023-05-13T02:39:30.236Z,100710.88
2023-05-13T02:40:18.162Z,100682.56
2023-05-13T02:40:58.233Z,100705.75
2023-05-13T02:41:39.195Z,100725.91
2023-05-13T02:42:19.315Z,100703.56
2023-05-13T02:43:00.170Z,100711.88
2023-05-13T02:43:40.411Z,100712.59
2023-05-13T02:44:20.154Z,100722.16
2023-05-13T02:45:00.572Z,100728.03
2023-05-13T02:45:41.171Z,100723.56
2023-05-13T02:46:21.271Z,100712.16
2023-05-13T02:47:02.166Z,100726.16
2023-05-13T02:48:08.152Z,100736.16
2023-05-13T02:55:59.213Z,100736.47
2023-05-13T02:56:36.140Z,100712.56
2023-05-13T02:57:23.142Z,100714.13
2023-05-13T02:57:56.958Z,100728.72
2023-05-13T02:58:44.144Z,100733.00
2023-05-13T03:00:26.121Z,100738.44
2023-05-13T03:01:08.264Z,100731.59
2023-05-13T03:01:48.329Z,100739.84
2023-05-13T03:02:35.248Z,100742.31
2023-05-13T03:03:09.279Z,100742.16
2023-05-13T03:03:57.158Z,100733.56
2023-05-13T03:04:31.229Z,100747.88
2023-05-13T03:05:18.130Z,100732.25
2023-05-13T03:05:52.237Z,100736.38
2023-05-13T03:06:33.142Z,100722.91
2023-05-13T03:07:17.323Z,100744.53
2023-05-13T03:08:00.172Z,100746.97
2023-05-13T03:08:40.316Z,100738.94
2023-05-13T03:09:21.146Z,100747.22
2023-05-13T03:10:01.247Z,100747.22
2023-05-13T03:10:42.132Z,100750.69
2023-05-13T03:11:22.260Z,100720.94
2023-05-13T03:13:22.723Z,100738.25
2023-05-13T03:14:10.160Z,100734.66
2023-05-13T03:19:44.109Z,100726.69
2023-05-13T03:20:24.301Z,100732.41
2023-05-13T03:21:05.139Z,100718.69
2023-05-13T03:22:31.307Z,100745.56
2023-05-13T03:24:13.134Z,100721.66
2023-05-13T03:24:47.259Z,100729.53
2023-05-13T03:25:21.031Z,100726.63
2023-05-13T03:26:01.108Z,100736.38
2023-05-13T03:26:35.422Z,100721.34
2023-05-13T03:27:08.947Z,100742.81
2023-05-13T03:27:49.125Z,100729.19
2023-05-13T03:28:23.212Z,100706.19
2023-05-13T03:28:56.965Z,100741.06
2023-05-13T03:29:38.154Z,100736.63
2023-05-13T03:30:13.259Z,100727.00
2023-05-13T03:30:46.956Z,100726.88
2023-05-13T03:31:27.161Z,100737.88
2023-05-13T03:32:01.234Z,100740.88
2023-05-13T03:32:35.729Z,100745.16
2023-05-13T03:33:16.110Z,100744.16
2023-05-13T03:33:50.215Z,100746.63
2023-05-13T03:34:23.836Z,100747.06
2023-05-13T03:35:07.165Z,100743.22
2023-05-13T03:35:41.746Z,100732.06
2023-05-13T03:36:15.888Z,100743.22
2023-05-13T03:36:56.187Z,100740.66
2023-05-13T03:37:31.244Z,100725.00
2023-05-13T03:38:04.946Z,100751.75
2023-05-13T03:38:45.092Z,100746.06
2023-05-13T03:39:19.196Z,100733.19
2023-05-13T03:39:52.894Z,100744.81
2023-05-13T03:40:33.126Z,100759.19
2023-05-13T03:41:07.214Z,100753.63
2023-05-13T03:41:42.096Z,100742.66
2023-05-13T03:42:22.114Z,100758.63
2023-05-13T03:42:56.189Z,100744.16
2023-05-13T03:43:29.840Z,100742.59
2023-05-13T03:44:11.092Z,100758.63
2023-05-13T03:44:45.204Z,100755.88
2023-05-13T03:45:19.057Z,100746.88
2023-05-13T03:45:59.111Z,100746.06
2023-05-13T03:52:52.161Z,100730.34
2023-05-13T03:53:25.961Z,100769.47
2023-05-13T03:54:14.095Z,100739.28
2023-05-13T03:54:47.874Z,100762.03
2023-05-13T03:55:35.172Z,100752.91
2023-05-13T03:56:08.924Z,100769.22
2023-05-13T03:56:56.158Z,100754.31
2023-05-13T03:57:29.816Z,100745.50
2023-05-13T03:58:26.116Z,100759.97
2023-05-13T03:58:59.828Z,100763.69
2023-05-13T03:59:47.240Z,100751.31
2023-05-13T04:00:21.544Z,100751.31
2023-05-13T04:01:09.084Z,100738.47
2023-05-13T04:01:42.864Z,100750.19
2023-05-13T04:02:55.202Z,100765.88
2023-05-13T04:03:42.120Z,100745.25
2023-05-13T04:04:29.501Z,100747.72
2023-05-13T04:05:16.144Z,100763.69
2023-05-13T04:05:52.482Z,100760.06
2023-05-13T04:06:39.085Z,100769.25
2023-05-13T04:07:12.882Z,100761.72
2023-05-13T04:08:00.151Z,100767.84
2023-05-13T04:08:34.379Z,100759.81
2023-05-13T04:10:12.369Z,100772.28
2023-05-13T04:10:48.118Z,100763.84
2023-05-13T04:11:29.081Z,100780.56
2023-05-13T04:12:03.568Z,100769.91
2023-05-13T04:12:40.585Z,100779.09
2023-05-13T04:13:20.093Z,100758.31
2023-05-13T04:13:54.244Z,100762.03
2023-05-13T04:14:34.109Z,100770.16
2023-05-13T04:15:15.223Z,100758.16
2023-05-13T04:15:55.075Z,100777.78
2023-05-13T04:16:35.268Z,100759.56
2023-05-13T04:17:15.161Z,100759.72
2023-05-13T04:17:56.280Z,100774.44
2023-05-13T04:18:38.112Z,100764.44
2023-05-13T04:19:18.227Z,100773.69
2023-05-13T04:20:02.208Z,100763.38
2023-05-13T04:20:45.235Z,100770.25
2023-05-13T04:21:25.117Z,100757.88
2023-05-13T04:22:06.174Z,100773.13
2023-05-13T04:22:46.060Z,100773.69
2023-05-13T04:23:26.156Z,100776.25
2023-05-13T04:24:06.072Z,100778.00
2023-05-13T04:24:46.137Z,100769.06
2023-05-13T04:25:26.109Z,100778.78
2023-05-13T04:26:07.170Z,100779.78
2023-05-13T04:26:47.086Z,100752.91
2023-05-13T04:27:27.159Z,100770.41
2023-05-13T04:28:07.071Z,100759.31
2023-05-13T04:28:49.265Z,100767.09
2023-05-13T04:29:29.058Z,100774.16
2023-05-13T04:30:10.269Z,100776.91
2023-05-13T04:30:50.071Z,100780.78
2023-05-13T04:31:30.200Z,100782.34
2023-05-13T04:32:11.211Z,100780.88
2023-05-13T04:32:51.388Z,100765.88
2023-05-13T04:33:31.071Z,100773.19
2023-05-13T04:34:12.235Z,100782.69
2023-05-13T04:34:52.069Z,100770.66
2023-05-13T04:35:32.164Z,100786.97
2023-05-13T04:36:15.018Z,100781.50
2023-05-13T04:36:55.214Z,100782.25
2023-05-13T04:37:35.053Z,100765.50
2023-05-13T04:38:16.203Z,100770.56
2023-05-13T04:38:56.078Z,100778.72
2023-05-13T04:39:37.163Z,100772.28
2023-05-13T04:40:18.060Z,100774.44
2023-05-13T04:40:59.147Z,100771.75
2023-05-13T04:41:39.080Z,100773.91
2023-05-13T04:42:22.190Z,100787.63
2023-05-13T04:43:02.051Z,100760.44
2023-05-13T04:43:44.182Z,100781.38
2023-05-13T04:44:24.033Z,100761.06
2023-05-13T04:45:04.174Z,100778.22
2023-05-13T04:45:45.057Z,100777.38
2023-05-13T04:46:28.144Z,100785.38
2023-05-13T04:47:09.076Z,100773.69
2023-05-13T04:47:49.164Z,100770.41
2023-05-13T04:48:29.054Z,100769.41
2023-05-13T04:49:10.140Z,100763.97
2023-05-13T04:49:50.034Z,100787.97
2023-05-13T04:50:31.919Z,100789.16
2023-05-13T04:51:13.023Z,100778.13
2023-05-13T04:51:53.155Z,100787.13
2023-05-13T04:52:33.140Z,100786.00
2023-05-13T04:53:13.173Z,100768.13
2023-05-13T04:53:53.094Z,100782.44
2023-05-13T04:54:35.403Z,100779.44
2023-05-13T04:55:19.042Z,100775.75
2023-05-13T04:56:00.963Z,100779.06
2023-05-13T04:56:41.039Z,100779.59
2023-05-13T04:57:21.172Z,100774.59
2023-05-13T04:58:04.066Z,100773.47
2023-05-13T04:58:44.164Z,100775.88
2023-05-13T04:59:25.037Z,100784.88
2023-05-13T05:00:05.433Z,100771.84
2023-05-13T05:00:46.832Z,100776.56
2023-05-13T05:01:27.170Z,100754.41
2023-05-13T05:02:08.172Z,100782.44
2023-05-13T05:02:48.269Z,100779.59
2023-05-13T05:03:29.113Z,100744.66
2023-05-13T05:04:09.163Z,100786.00
2023-05-13T05:04:49.040Z,100782.00
2023-05-13T05:05:29.125Z,100775.13
2023-05-13T05:06:09.037Z,100767.00
2023-05-13T05:06:49.181Z,100768.97
2023-05-13T05:07:30.026Z,100766.81
2023-05-13T05:08:10.299Z,100760.38
2023-05-13T05:08:51.063Z,100780.00
2023-05-13T05:09:31.136Z,100767.28
2023-05-13T05:10:12.053Z,100765.56
2023-05-13T05:10:52.309Z,100764.41
2023-05-13T05:11:33.041Z,100780.56
2023-05-13T05:12:14.141Z,100767.44
2023-05-13T05:12:57.035Z,100781.31
2023-05-13T05:13:49.122Z,100774.91
2023-05-13T05:14:29.036Z,100794.06
2023-05-13T05:15:16.209Z,100766.00
2023-05-13T05:15:59.005Z,100784.03
2023-05-13T05:16:39.143Z,100778.47
2023-05-13T05:17:19.066Z,100766.75
2023-05-13T05:17:59.235Z,100771.47
2023-05-13T05:18:41.236Z,100764.31
2023-05-13T05:19:24.090Z,100766.16
2023-05-13T05:20:06.095Z,100781.75
2023-05-13T05:20:46.210Z,100773.19
2023-05-13T05:21:26.011Z,100760.88
2023-05-13T05:22:06.209Z,100791.47
2023-05-13T05:22:47.992Z,100786.19
2023-05-13T05:23:28.138Z,100763.91
2023-05-13T05:24:09.016Z,100777.31
2023-05-13T05:24:49.104Z,100794.47
2023-05-13T05:25:31.045Z,100781.88
2023-05-13T05:26:12.701Z,100790.31
2023-05-13T05:26:54.014Z,100775.75
2023-05-13T05:27:34.104Z,100775.47
2023-05-13T05:28:16.008Z,100756.88
2023-05-13T05:28:58.501Z,100763.59
2023-05-13T05:29:41.021Z,100793.63
2023-05-13T05:30:22.354Z,100786.75
2023-05-13T05:31:03.041Z,100778.31
2023-05-13T05:31:43.135Z,100763.28
2023-05-13T05:32:24.076Z,100773.59
2023-05-13T05:33:04.181Z,100765.72
2023-05-13T05:33:45.993Z,100768.59
2023-05-13T05:34:26.390Z,100783.59
2023-05-13T05:35:09.006Z,100760.56
2023-05-13T05:35:49.107Z,100786.47
2023-05-13T05:36:30.040Z,100768.28
2023-05-13T05:37:10.115Z,100757.84
2023-05-13T05:37:50.023Z,100786.44
2023-05-13T05:38:30.123Z,100790.84
2023-05-13T05:39:10.033Z,100768.28
2023-05-13T05:39:50.243Z,100759.41
2023-05-13T05:40:31.008Z,100766.22
2023-05-13T05:41:11.112Z,100787.28
2023-05-13T05:41:51.038Z,100752.38
2023-05-13T05:42:31.103Z,100775.97
2023-05-13T05:43:11.000Z,100770.22
2023-05-13T05:43:51.276Z,100771.91
2023-05-13T05:44:32.002Z,100785.22
2023-05-13T05:45:13.133Z,100774.38
2023-05-13T05:45:55.783Z,100774.19
2023-05-13T05:46:36.222Z,100778.63
2023-05-13T05:47:16.019Z,100789.94
2023-05-13T05:47:57.588Z,100789.34
2023-05-13T05:48:38.985Z,100782.50
2023-05-13T05:49:19.099Z,100770.19
2023-05-13T05:49:59.007Z,100777.03
2023-05-13T05:50:40.178Z,100765.28
2023-05-13T05:51:20.013Z,100778.59
2023-05-13T05:52:00.117Z,100786.47
2023-05-13T05:52:41.013Z,100775.28
2023-05-13T05:53:21.253Z,100785.84
2023-05-13T05:54:00.986Z,100788.84
2023-05-13T05:54:41.555Z,100796.63
2023-05-13T05:55:21.993Z,100788.47
2023-05-13T05:56:02.078Z,100803.72
2023-05-13T05:56:43.035Z,100797.88
2023-05-13T05:57:23.129Z,100797.28
2023-05-13T05:58:03.059Z,100787.00
2023-05-13T05:58:43.102Z,100800.66
2023-05-13T05:59:23.011Z,100795.41
2023-05-13T06:00:03.349Z,100781.66
2023-05-13T06:00:44.001Z,100790.91
2023-05-13T06:01:28.075Z,100789.63
2023-05-13T06:03:48.083Z,100798.28
2023-05-13T06:04:25.153Z,100792.34
2023-05-13T06:05:15.684Z,100794.44
2023-05-13T06:05:49.082Z,100789.06
2023-05-13T06:06:35.990Z,100781.72
2023-05-13T06:07:10.135Z,100752.47
2023-05-13T06:07:59.967Z,100800.59
2023-05-13T06:08:37.082Z,100781.13
2023-05-13T06:09:17.975Z,100791.44
2023-05-13T06:09:58.149Z,100783.84
2023-05-13T06:10:37.977Z,100784.63
2023-05-13T06:11:18.053Z,100803.44
2023-05-13T06:11:57.977Z,100785.09
2023-05-13T06:12:38.116Z,100798.41
2023-05-13T06:13:19.032Z,100788.47
2023-05-13T06:14:01.136Z,100799.16
2023-05-13T06:14:41.981Z,100787.19
2023-05-13T06:15:22.280Z,100797.97
2023-05-13T06:16:10.892Z,100783.13
2023-05-13T06:16:51.731Z,100792.41
2023-05-13T06:22:02.599Z,100790.03
2023-05-13T06:22:58.375Z,100792.03
2023-05-13T06:23:52.387Z,100764.72
2023-05-13T06:24:49.398Z,100787.91
2023-05-13T06:25:43.389Z,100794.44
2023-05-13T06:26:38.411Z,100770.09
2023-05-13T06:27:25.423Z,100781.91
2023-05-13T06:28:00.832Z,100797.91
2023-05-13T06:28:49.364Z,100797.91
2023-05-13T06:29:23.591Z,100798.75
2023-05-13T06:30:11.386Z,100802.03
2023-05-13T06:30:45.998Z,100776.59
2023-05-13T06:31:34.427Z,100788.66
2023-05-13T06:32:08.479Z,100760.97
2023-05-13T06:33:00.881Z,100775.03
2023-05-13T06:33:41.449Z,100795.34
2023-05-13T06:34:24.445Z,100786.47
2023-05-13T06:35:04.538Z,100801.75
2023-05-13T06:35:46.356Z,100800.41
2023-05-13T06:36:26.465Z,100802.09
2023-05-13T06:37:06.360Z,100771.88
2023-05-13T06:37:46.505Z,100786.09
2023-05-13T06:38:26.436Z,100774.31
2023-05-13T06:39:07.468Z,100797.13
2023-05-13T06:39:48.392Z,100791.69
2023-05-13T06:40:28.498Z,100788.22
2023-05-13T06:41:21.335Z,100803.84
2023-05-13T06:42:01.488Z,100804.00
2023-05-13T06:42:46.339Z,100777.97
2023-05-13T06:43:33.380Z,100789.41
2023-05-13T06:49:49.444Z,100806.78
2023-05-13T06:50:43.365Z,100791.06
2023-05-13T06:52:17.530Z,100805.94
2023-05-13T07:11:52.425Z,100798.28
2023-05-13T07:13:44.334Z,100784.22
2023-05-13T07:16:10.362Z,100795.66
2023-05-13T07:19:09.406Z,100795.53
2023-05-13T07:20:47.322Z,100799.47
2023-05-13T07:21:21.845Z,100804.97
2023-05-13T07:22:18.335Z,100801.09
2023-05-13T07:22:52.417Z,100796.94
2023-05-13T07:23:32.424Z,100791.00
2023-05-13T07:24:12.397Z,100789.97
2023-05-13T07:24:55.667Z,100790.63
2023-05-13T07:25:35.442Z,100783.13
2023-05-13T07:26:15.298Z,100799.75
2023-05-13T07:26:55.453Z,100800.78
2023-05-13T07:27:35.289Z,100777.66
2023-05-13T07:28:15.865Z,100788.13
2023-05-13T07:28:56.324Z,100801.34
2023-05-13T07:29:38.463Z,100787.69
2023-05-13T07:30:19.349Z,100804.75
2023-05-13T07:31:00.514Z,100809.25
2023-05-13T07:31:42.382Z,100791.13
2023-05-13T07:32:22.447Z,100799.38
2023-05-13T07:33:02.411Z,100773.00
2023-05-13T07:33:43.370Z,100795.28
2023-05-13T07:34:23.387Z,100779.31
2023-05-13T07:35:04.375Z,100801.78
2023-05-13T07:35:44.303Z,100774.00
2023-05-13T07:36:24.765Z,100798.34
2023-05-13T07:37:05.316Z,100795.97
2023-05-13T07:37:51.273Z,100776.09
2023-05-13T07:38:32.319Z,100777.09
2023-05-13T07:39:12.748Z,100796.66
2023-05-13T07:39:53.501Z,100790.84
2023-05-13T07:40:33.393Z,100797.00
2023-05-13T07:41:13.274Z,100763.44
2023-05-13T07:41:53.673Z,100778.03
2023-05-13T07:42:36.436Z,100783.31
2023-05-13T07:43:23.556Z,100778.66
2023-05-13T07:44:03.283Z,100794.25
2023-05-13T07:44:46.590Z,100782.25
2023-05-13T07:45:26.320Z,100803.00
2023-05-13T07:46:07.499Z,100802.31
2023-05-13T07:46:48.341Z,100779.66
2023-05-13T07:47:29.182Z,100800.94
2023-05-13T07:48:10.404Z,100781.63
2023-05-13T07:48:52.379Z,100801.97
2023-05-13T07:49:32.343Z,100801.78
2023-05-13T07:50:14.417Z,100794.25
2023-05-13T07:50:54.338Z,100795.28
2023-05-13T07:51:34.570Z,100800.25
2023-05-13T07:52:14.294Z,100787.44
2023-05-13T07:52:54.411Z,100799.94
2023-05-13T07:53:35.287Z,100797.34
2023-05-13T07:54:16.467Z,100806.59
2023-05-13T07:54:56.297Z,100800.13
2023-05-13T07:55:36.380Z,100782.66
2023-05-13T07:56:16.569Z,100790.34
2023-05-13T07:56:56.484Z,100789.16
2023-05-13T07:57:36.289Z,100780.09
2023-05-13T07:58:18.554Z,100805.94
2023-05-13T07:58:59.342Z,100799.75
2023-05-13T07:59:39.410Z,100794.63
2023-05-13T08:00:20.297Z,100798.06
2023-05-13T08:01:00.381Z,100803.19
2023-05-13T08:01:42.291Z,100780.97
2023-05-13T08:02:54.443Z,100801.16
2023-05-13T08:03:34.464Z,100805.94
2023-05-13T08:04:14.538Z,100785.06
2023-05-13T08:04:54.336Z,100777.38
2023-05-13T08:05:34.503Z,100782.00
2023-05-13T08:06:15.265Z,100779.44
2023-05-13T08:07:02.291Z,100787.81
2023-05-13T08:07:56.286Z,100798.41
2023-05-13T08:08:50.316Z,100796.53
2023-05-13T08:09:44.289Z,100783.19
2023-05-13T08:10:38.436Z,100781.13
2023-05-13T08:11:33.300Z,100801.63
2023-05-13T08:12:20.311Z,100794.84
2023-05-13T08:12:57.680Z,100774.78
2023-05-13T08:13:45.312Z,100780.78
2023-05-13T08:14:19.450Z,100780.28
2023-05-13T08:15:10.313Z,100778.88
2023-05-13T08:15:45.845Z,100783.69
2023-05-13T08:16:33.326Z,100787.13
2023-05-13T08:17:07.843Z,100777.03
2023-05-13T08:17:49.351Z,100773.41
2023-05-13T08:18:30.645Z,100791.25
2023-05-13T08:19:11.338Z,100784.72
2023-05-13T08:19:51.374Z,100779.75
2023-05-13T08:20:36.265Z,100789.50
2023-05-13T08:21:16.376Z,100788.47
2023-05-13T08:21:57.423Z,100789.53
2023-05-13T08:22:38.432Z,100775.47
2023-05-13T08:23:18.299Z,100788.66
2023-05-13T08:23:58.394Z,100781.47
2023-05-13T08:24:39.308Z,100777.19
2023-05-13T08:25:19.551Z,100778.22
2023-05-13T08:26:00.292Z,100795.84
2023-05-13T08:26:40.338Z,100784.72
2023-05-13T08:27:21.268Z,100789.50
2023-05-13T08:28:01.658Z,100783.34
2023-05-13T08:28:42.560Z,100791.22
2023-05-13T08:29:23.426Z,100789.16
2023-05-13T08:30:04.356Z,100768.94
2023-05-13T08:30:44.587Z,100796.63
2023-05-13T08:31:24.334Z,100790.28
2023-05-13T08:32:04.447Z,100779.91
2023-05-13T08:32:44.305Z,100798.84
2023-05-13T08:33:26.549Z,100789.06
2023-05-13T08:34:07.308Z,100792.31
2023-05-13T08:34:47.420Z,100775.22
2023-05-13T08:35:30.282Z,100794.22
2023-05-13T08:36:10.536Z,100777.44
2023-05-13T08:36:52.961Z,100781.84
2023-05-13T08:37:33.404Z,100794.50
2023-05-13T08:38:14.253Z,100780.47
2023-05-13T08:38:54.421Z,100790.34
2023-05-13T08:39:35.275Z,100797.50
2023-05-13T08:40:17.409Z,100787.97
2023-05-13T08:40:57.305Z,100780.75
2023-05-13T08:41:37.360Z,100781.78
2023-05-13T08:42:18.268Z,100765.66
2023-05-13T08:42:59.378Z,100771.63
2023-05-13T08:43:41.244Z,100780.19
2023-05-13T08:44:21.483Z,100784.63
2023-05-13T08:45:03.260Z,100765.63
2023-05-13T08:45:47.404Z,100744.56
2023-05-13T08:46:33.371Z,100792.28
2023-05-13T08:47:42.385Z,100797.25
2023-05-13T08:48:23.280Z,100783.75
2023-05-13T08:49:04.346Z,100772.47
2023-05-13T08:49:45.258Z,100778.09
2023-05-13T08:50:27.312Z,100775.53
2023-05-13T08:51:04.209Z,100769.38
2023-05-13T08:51:52.272Z,100783.41
2023-05-13T08:52:26.611Z,100764.25
2023-05-13T08:53:14.298Z,100768.34
2023-05-13T08:53:48.345Z,100762.03
2023-05-13T08:54:36.260Z,100760.84
2023-05-13T08:55:11.439Z,100772.47
2023-05-13T08:55:52.265Z,100770.75
2023-05-13T08:56:35.439Z,100743.38
2023-05-13T08:57:15.226Z,100751.91
2023-05-13T08:57:55.319Z,100758.56
2023-05-13T08:58:36.265Z,100769.97
2023-05-13T08:59:16.378Z,100753.19
2023-05-13T08:59:56.252Z,100761.44
2023-05-13T09:00:36.486Z,100753.91
2023-05-13T09:01:17.288Z,100760.81
2023-05-13T09:01:57.642Z,100760.97
2023-05-13T09:02:38.268Z,100759.25
2023-05-13T09:03:20.372Z,100768.81
2023-05-13T09:04:11.231Z,100768.47
2023-05-13T09:04:53.331Z,100749.31
2023-05-13T09:05:35.739Z,100756.81
2023-05-13T09:06:25.253Z,100746.69
2023-05-13T09:07:20.259Z,100751.59
2023-05-13T09:08:22.291Z,100771.81
2023-05-13T09:09:16.226Z,100760.09
2023-05-13T09:10:11.232Z,100753.59
2023-05-13T09:11:05.222Z,100753.91
2023-05-13T09:11:48.906Z,100743.78
2023-05-13T09:12:57.382Z,100774.63
2023-05-13T09:13:38.256Z,100753.03
2023-05-13T09:14:18.344Z,100752.00
2023-05-13T09:14:58.265Z,100765.84
2023-05-13T09:15:39.412Z,100768.28
2023-05-13T09:16:20.288Z,100761.75
2023-05-13T09:17:04.280Z,100760.91
2023-05-13T09:17:38.702Z,100761.00
2023-05-13T09:18:26.425Z,100758.16
2023-05-13T09:19:11.351Z,100768.38
2023-05-13T09:19:58.302Z,100764.25
2023-05-13T09:20:36.822Z,100763.19
2023-05-13T09:21:40.671Z,100763.19
2023-05-13T09:22:31.293Z,100731.06
2023-05-13T09:23:26.274Z,100749.97
2023-05-13T09:24:31.285Z,100772.38
2023-05-13T09:25:27.295Z,100774.38
2023-05-13T09:26:41.263Z,100764.09
2023-05-13T09:27:51.213Z,100752.91
2023-05-13T09:28:45.209Z,100754.56
2023-05-13T09:29:41.212Z,100742.00
2023-05-13T09:30:35.215Z,100756.78
2023-05-13T09:31:46.410Z,100764.34
2023-05-13T09:32:40.222Z,100763.22
2023-05-13T09:33:26.992Z,100750.75
2023-05-13T09:34:12.663Z,100763.44
2023-05-13T09:34:55.257Z,100753.00
2023-05-13T09:35:38.347Z,100772.13
2023-05-13T09:36:18.232Z,100769.19
2023-05-13T09:37:13.356Z,100767.78
2023-05-13T09:37:55.228Z,100758.19
2023-05-13T09:38:47.835Z,100769.28
2023-05-13T09:39:43.295Z,100764.44
2023-05-13T09:40:37.226Z,100752.72
2023-05-13T09:41:33.214Z,100748.81
2023-05-13T09:42:33.248Z,100759.06
2023-05-13T09:43:27.286Z,100761.16
2023-05-13T09:44:11.240Z,100770.13
2023-05-13T09:44:52.429Z,100759.84
2023-05-13T09:45:33.220Z,100755.38
2023-05-13T09:46:16.450Z,100766.09
2023-05-13T09:46:59.373Z,100761.59
2023-05-13T09:47:39.393Z,100758.00
2023-05-13T09:48:21.588Z,100757.25
2023-05-13T09:49:05.676Z,100757.09
2023-05-13T09:49:50.234Z,100746.72
2023-05-13T09:50:32.659Z,100745.31
2023-05-13T09:51:12.214Z,100757.72
2023-05-13T09:51:52.374Z,100736.63
2023-05-13T09:52:32.710Z,100747.50
2023-05-13T09:53:22.844Z,100745.69
2023-05-13T09:54:14.306Z,100758.47
2023-05-13T09:55:01.219Z,100745.03
2023-05-13T09:56:02.228Z,100732.06
2023-05-13T09:56:56.183Z,100744.66
2023-05-13T09:57:50.227Z,100745.25
2023-05-13T09:58:44.219Z,100748.34
2023-05-13T09:59:38.232Z,100740.59
2023-05-13T10:00:32.753Z,100746.94
2023-05-13T10:01:08.352Z,100718.91
2023-05-13T10:01:55.289Z,100750.84
2023-05-13T10:02:31.323Z,100742.31
2023-05-13T10:03:18.213Z,100748.16
2023-05-13T10:03:52.271Z,100739.19
2023-05-13T10:04:40.232Z,100746.19
2023-05-13T10:05:16.471Z,100736.72
2023-05-13T10:06:01.299Z,100744.94
2023-05-13T10:06:52.358Z,100735.66
2023-05-13T10:07:33.212Z,100731.13
2023-05-13T10:08:19.275Z,100750.44
2023-05-13T10:09:03.261Z,100741.47
2023-05-13T10:09:46.306Z,100739.09
2023-05-13T10:10:27.203Z,100741.06
2023-05-13T10:11:15.390Z,100740.59
2023-05-13T10:12:10.236Z,100743.72
2023-05-13T10:13:06.248Z,100738.50
2023-05-13T10:14:08.343Z,100728.88
2023-05-13T10:15:09.196Z,100722.69
2023-05-13T10:16:11.221Z,100730.56
2023-05-13T10:16:54.322Z,100713.50
2023-05-13T10:17:36.380Z,100741.75
2023-05-13T10:18:17.285Z,100736.34
2023-05-13T10:19:03.293Z,100738.31
2023-05-13T10:19:44.259Z,100725.72
2023-05-13T10:20:24.626Z,100710.19
2023-05-13T10:21:06.186Z,100725.34
2023-05-13T10:21:47.304Z,100734.53
2023-05-13T10:22:38.191Z,100724.03
2023-05-13T10:23:19.302Z,100735.97
2023-05-13T10:24:03.177Z,100744.88
2023-05-13T10:24:45.352Z,100712.75
2023-05-13T10:25:26.262Z,100709.75
2023-05-13T10:26:10.362Z,100687.78
2023-05-13T10:26:52.199Z,100729.72
2023-05-13T10:27:45.215Z,100726.13
2023-05-13T10:28:40.204Z,100731.50
2023-05-13T10:29:36.232Z,100723.53
2023-05-13T10:30:33.236Z,100718.09
2023-05-13T10:31:28.318Z,100729.97
2023-05-13T10:32:23.218Z,100736.00
2023-05-13T10:33:15.538Z,100725.00
2023-05-13T10:33:50.337Z,100712.31
2023-05-13T10:34:40.187Z,100732.75
2023-05-13T10:35:15.372Z,100711.25
2023-05-13T10:36:45.167Z,100704.84
2023-05-13T10:38:01.735Z,100728.31
2023-05-13T10:39:19.297Z,100730.34
2023-05-13T10:40:36.310Z,100734.22
2023-05-13T10:41:37.237Z,100714.50
2023-05-13T10:42:48.280Z,100738.16
2023-05-13T10:43:38.032Z,100727.03
2023-05-13T10:44:18.279Z,100710.72
2023-05-13T10:45:02.200Z,100729.66
2023-05-13T10:45:42.266Z,100720.81
2023-05-13T10:46:26.240Z,100719.19
2023-05-13T10:47:06.426Z,100729.03
2023-05-13T10:47:46.251Z,100726.47
2023-05-13T10:48:29.398Z,100720.03
2023-05-13T10:49:11.234Z,100722.22
2023-05-13T10:50:11.182Z,100729.16
2023-05-13T10:51:17.173Z,100719.41
2023-05-13T10:52:21.167Z,100726.00
2023-05-13T10:53:15.157Z,100737.59
2023-05-13T10:54:11.157Z,100732.25
2023-05-13T10:55:17.490Z,100726.75